createdAt,value
2018-07-15T00:01:42.119Z,82.30
2018-07-15T00:04:11.482Z,82.10
2018-07-15T00:06:42.294Z,82.30
2018-07-15T00:09:12.843Z,82.50
2018-07-15T00:11:43.103Z,82.90
2018-07-15T00:14:13.203Z,83.00
2018-07-15T00:16:48.141Z,83.40
2018-07-15T00:19:18.484Z,83.70
2018-07-15T00:21:48.276Z,84.00
2018-07-15T00:24:20.240Z,84.20
2018-07-15T00:26:51.038Z,84.20
2018-07-15T00:29:22.773Z,84.20
2018-07-15T00:31:56.446Z,84.40
2018-07-15T00:34:30.472Z,84.60
2018-07-15T00:37:01.900Z,84.90
2018-07-15T00:39:33.835Z,84.90
2018-07-15T00:44:34.305Z,85.70
2018-07-15T00:47:04.498Z,86.00
2018-07-15T00:49:35.286Z,86.20
2018-07-15T00:52:04.976Z,86.20
2018-07-15T00:54:37.198Z,86.30
2018-07-15T00:57:06.951Z,86.50
2018-07-15T00:59:37.149Z,86.40
2018-07-15T01:02:07.671Z,86.50
2018-07-15T01:04:38.684Z,87.10
2018-07-15T01:07:08.365Z,86.50
2018-07-15T01:09:38.118Z,86.20
2018-07-15T01:12:09.659Z,86.50
2018-07-15T01:14:42.855Z,86.80
2018-07-15T01:17:14.764Z,86.80
2018-07-15T01:19:48.639Z,87.10
2018-07-15T01:22:20.004Z,87.50
2018-07-15T01:24:50.099Z,88.00
2018-07-15T01:27:20.820Z,88.20
2018-07-15T01:29:51.982Z,88.40
2018-07-15T01:32:23.088Z,88.40
2018-07-15T01:34:57.053Z,88.30
2018-07-15T01:37:26.473Z,88.20
2018-07-15T01:39:56.424Z,88.90
2018-07-15T01:42:26.112Z,88.70
2018-07-15T01:44:56.145Z,88.30
2018-07-15T01:47:26.649Z,89.40
2018-07-15T01:49:55.525Z,88.90
2018-07-15T01:52:26.815Z,89.50
2018-07-15T01:54:56.882Z,89.60
2018-07-15T01:57:26.972Z,89.60
2018-07-15T01:59:56.161Z,89.20
2018-07-15T02:02:27.087Z,89.00
2018-07-15T02:04:57.490Z,89.50
2018-07-15T02:07:28.461Z,89.60
2018-07-15T02:09:59.618Z,89.60
2018-07-15T02:12:30.120Z,89.70
2018-07-15T02:15:14.639Z,90.10
2018-07-15T02:17:44.992Z,90.20
2018-07-15T02:20:16.190Z,90.10
2018-07-15T02:22:46.073Z,90.10
2018-07-15T02:25:16.050Z,90.10
2018-07-15T02:27:46.564Z,90.20
2018-07-15T02:32:44.973Z,90.40
2018-07-15T02:35:13.935Z,90.40
2018-07-15T02:37:44.162Z,90.60
2018-07-15T02:40:13.751Z,91.10
2018-07-15T02:42:45.676Z,91.00
2018-07-15T02:45:18.053Z,91.40
2018-07-15T02:47:48.561Z,91.40
2018-07-15T02:50:20.635Z,91.40
2018-07-15T02:52:51.668Z,91.40
2018-07-15T02:55:22.288Z,91.50
2018-07-15T02:57:52.589Z,91.50
2018-07-15T03:00:23.430Z,91.40
2018-07-15T03:02:54.239Z,91.30
2018-07-15T03:05:23.837Z,91.30
2018-07-15T03:10:21.904Z,91.20
2018-07-15T03:15:25.030Z,91.30
2018-07-15T03:17:54.967Z,91.30
2018-07-15T03:20:26.669Z,91.60
2018-07-15T03:22:58.750Z,91.70
2018-07-15T03:25:28.991Z,91.90
2018-07-15T03:27:58.885Z,91.80
2018-07-15T03:33:02.822Z,91.50
2018-07-15T03:35:33.578Z,91.40
2018-07-15T03:38:03.902Z,91.10
2018-07-15T03:40:33.539Z,91.00
2018-07-15T03:43:04.737Z,90.60
2018-07-15T03:45:36.557Z,90.20
2018-07-15T03:50:38.702Z,89.90
2018-07-15T03:53:08.854Z,88.10
2018-07-15T03:55:39.884Z,87.60
2018-07-15T04:00:40.934Z,86.60
2018-07-15T04:03:12.127Z,85.60
2018-07-15T04:05:41.905Z,84.90
2018-07-15T04:08:12.574Z,84.70
2018-07-15T04:10:44.136Z,84.00
2018-07-15T04:13:14.403Z,83.50
2018-07-15T04:18:13.786Z,82.90
2018-07-15T04:20:45.653Z,82.70
2018-07-15T04:23:16.760Z,82.60
2018-07-15T04:25:47.956Z,82.90
2018-07-15T04:28:25.155Z,82.30
2018-07-15T04:30:56.527Z,82.00
2018-07-15T04:33:27.876Z,81.60
2018-07-15T04:35:57.824Z,81.20
2018-07-15T04:38:27.862Z,81.30
2018-07-15T04:40:59.395Z,81.10
2018-07-15T04:43:30.227Z,81.10
2018-07-15T04:46:00.249Z,81.00
2018-07-15T04:48:41.502Z,80.20
2018-07-15T04:51:14.244Z,80.10
2018-07-15T04:53:46.594Z,80.00
2018-07-15T04:56:23.544Z,79.40
2018-07-15T04:58:53.726Z,79.30
2018-07-15T05:01:24.610Z,78.90
2018-07-15T05:03:54.813Z,78.40
2018-07-15T05:06:31.161Z,78.50
2018-07-15T05:09:10.762Z,77.90
2018-07-15T05:11:44.715Z,77.90
2018-07-15T05:14:14.280Z,77.60
2018-07-15T05:16:46.422Z,77.00
2018-07-15T05:19:18.294Z,76.80
2018-07-15T05:21:49.666Z,76.60
2018-07-15T05:24:20.554Z,76.40
2018-07-15T05:26:51.777Z,76.10
2018-07-15T05:29:39.312Z,75.40
2018-07-15T05:32:11.628Z,75.90
2018-07-15T05:34:43.391Z,75.70
2018-07-15T05:37:13.806Z,75.70
2018-07-15T05:39:46.543Z,76.30
2018-07-15T05:42:19.264Z,76.60
2018-07-15T05:44:52.696Z,76.70
2018-07-15T05:50:00.714Z,76.80
2018-07-15T05:52:33.555Z,76.90
2018-07-15T05:55:05.356Z,76.50
2018-07-15T05:57:40.693Z,76.30
2018-07-15T06:00:12.482Z,77.40
2018-07-15T06:02:48.004Z,76.50
2018-07-15T06:05:19.395Z,76.50
2018-07-15T06:07:51.395Z,76.20
2018-07-15T06:10:26.410Z,75.70
2018-07-15T06:12:56.202Z,75.50
2018-07-15T06:15:28.428Z,75.70
2018-07-15T06:18:04.694Z,75.00
2018-07-15T06:23:04.794Z,74.90
2018-07-15T06:28:08.598Z,74.60
2018-07-15T06:30:56.010Z,74.30
2018-07-15T06:33:28.758Z,73.60
2018-07-15T06:36:00.193Z,74.00
2018-07-15T06:38:30.651Z,73.80
2018-07-15T06:41:01.940Z,74.70
2018-07-15T06:43:32.559Z,74.10
2018-07-15T06:46:02.915Z,73.30
2018-07-15T06:48:35.245Z,72.80
2018-07-15T06:51:14.129Z,73.00
2018-07-15T06:53:43.833Z,73.20
2018-07-15T06:56:18.342Z,72.70
2018-07-15T06:58:49.000Z,72.40
2018-07-15T07:01:19.670Z,72.80
2018-07-15T07:03:50.609Z,72.10
2018-07-15T07:06:21.943Z,71.50
2018-07-15T07:08:54.514Z,71.40
2018-07-15T07:11:29.177Z,71.10
2018-07-15T07:14:03.672Z,70.70
2018-07-15T07:16:38.320Z,71.10
2018-07-15T07:19:14.330Z,70.00
2018-07-15T07:21:47.040Z,70.70
2018-07-15T07:24:18.399Z,69.90
2018-07-15T07:26:50.345Z,70.10
2018-07-15T07:29:22.245Z,69.60
2018-07-15T07:31:54.722Z,69.10
2018-07-15T07:34:24.855Z,68.90
2018-07-15T07:36:54.504Z,68.60
2018-07-15T07:39:24.252Z,67.80
2018-07-15T07:41:56.281Z,67.10
2018-07-15T07:44:27.839Z,66.80
2018-07-15T07:46:59.341Z,66.90
2018-07-15T07:49:30.803Z,65.60
2018-07-15T07:57:16.672Z,65.50
2018-07-15T08:05:24.173Z,64.30
2018-07-15T08:07:59.829Z,64.00
2018-07-15T08:10:39.438Z,64.10
2018-07-15T08:13:09.459Z,64.00
2018-07-15T08:15:39.374Z,63.70
2018-07-15T08:18:22.728Z,64.10
2018-07-15T08:21:04.937Z,63.70
2018-07-15T08:47:51.919Z,58.90
2018-07-15T08:50:28.412Z,59.80
2018-07-15T08:52:59.792Z,59.10
2018-07-15T08:55:36.776Z,58.90
2018-07-15T09:46:56.744Z,52.60
2018-07-15T10:16:09.541Z,50.50
2018-07-15T10:22:22.107Z,49.70
2018-07-15T10:24:54.360Z,49.50
2018-07-15T10:27:25.351Z,48.90
2018-07-15T10:29:54.677Z,47.90
2018-07-15T10:32:25.734Z,47.80
2018-07-15T10:34:57.589Z,47.50
2018-07-15T10:37:28.540Z,47.60
2018-07-15T10:39:59.109Z,47.50
2018-07-15T10:42:40.524Z,47.30
2018-07-15T10:45:11.083Z,47.10
2018-07-15T10:47:42.008Z,47.40
2018-07-15T10:50:13.354Z,46.70
2018-07-15T10:52:44.042Z,46.70
2018-07-15T10:55:15.212Z,44.70
2018-07-15T10:57:46.226Z,45.30
2018-07-15T11:00:16.465Z,44.60
2018-07-15T11:02:56.171Z,44.50
2018-07-15T11:05:26.795Z,42.60
2018-07-15T11:07:57.903Z,44.10
2018-07-15T11:10:27.347Z,43.90
2018-07-15T11:12:57.903Z,44.80
2018-07-15T11:15:27.357Z,43.50
2018-07-15T11:17:57.149Z,42.70
2018-07-15T11:20:27.334Z,43.60
2018-07-15T11:22:57.737Z,42.60
2018-07-15T11:25:30.154Z,41.50
2018-07-15T11:27:59.874Z,42.30
2018-07-15T11:30:31.952Z,42.00
2018-07-15T11:33:03.056Z,41.30
2018-07-15T11:35:33.839Z,41.90
2018-07-15T11:38:04.924Z,41.70
2018-07-15T11:40:36.930Z,40.80
2018-07-15T11:43:13.288Z,42.10
2018-07-15T11:45:44.249Z,42.40
2018-07-15T11:48:16.964Z,42.00
2018-07-15T11:50:46.756Z,42.00
2018-07-15T11:53:16.638Z,41.90
2018-07-15T11:55:47.764Z,41.60
2018-07-15T11:58:18.378Z,40.30
2018-07-15T12:00:48.267Z,40.90
2018-07-15T12:03:25.194Z,41.10
2018-07-15T12:05:54.837Z,40.60
2018-07-15T12:08:25.699Z,40.80
2018-07-15T12:10:58.000Z,40.10
2018-07-15T12:13:29.108Z,40.40
2018-07-15T12:15:58.796Z,39.70
2018-07-15T12:18:28.936Z,40.50
2018-07-15T12:20:59.322Z,41.20
2018-07-15T12:23:29.102Z,41.20
2018-07-15T12:26:00.021Z,40.40
2018-07-15T12:28:30.755Z,42.20
2018-07-15T12:31:02.777Z,41.80
2018-07-15T12:35:18.099Z,41.10
2018-07-15T12:37:49.040Z,40.60
2018-07-15T12:44:30.577Z,40.00
2018-07-15T12:47:40.584Z,40.00
2018-07-15T12:50:10.688Z,40.50
2018-07-15T12:53:14.491Z,40.90
2018-07-15T12:55:44.540Z,41.00
2018-07-15T12:58:14.545Z,40.70
2018-07-15T13:00:45.446Z,39.80
2018-07-15T13:03:15.815Z,40.10
2018-07-15T13:05:47.205Z,39.10
2018-07-15T13:08:18.519Z,39.00
2018-07-15T13:10:48.750Z,38.90
2018-07-15T13:13:20.487Z,39.50
2018-07-15T13:15:50.265Z,39.10
2018-07-15T13:18:19.703Z,38.70
2018-07-15T13:20:50.108Z,38.40
2018-07-15T13:23:21.031Z,38.60
2018-07-15T13:25:51.231Z,38.50
2018-07-15T13:28:21.005Z,37.90
2018-07-15T13:30:51.286Z,38.40
2018-07-15T13:33:22.433Z,37.30
2018-07-15T13:35:54.322Z,38.80
2018-07-15T14:12:05.157Z,35.10
2018-07-15T14:14:36.076Z,35.60
2018-07-15T14:20:27.895Z,34.80
2018-07-15T14:22:57.724Z,35.20
2018-07-15T14:25:39.681Z,35.10
2018-07-15T14:28:11.104Z,35.60
2018-07-15T14:30:41.660Z,35.30
2018-07-15T14:33:12.760Z,34.80
2018-07-15T14:38:32.050Z,35.30
2018-07-15T14:41:01.407Z,34.10
2018-07-15T14:47:34.651Z,35.10
2018-07-15T14:50:04.517Z,34.60
2018-07-15T14:52:36.430Z,34.60
2018-07-15T14:55:06.546Z,34.40
2018-07-15T14:57:35.724Z,34.60
2018-07-15T15:00:05.391Z,33.40
2018-07-15T15:02:36.060Z,32.90
2018-07-15T15:08:44.365Z,33.00
2018-07-15T15:11:15.065Z,33.60
2018-07-15T15:13:46.006Z,32.90
2018-07-15T15:16:16.651Z,33.20
2018-07-15T15:18:46.153Z,33.50
2018-07-15T15:21:15.748Z,33.40
2018-07-15T15:23:47.115Z,32.90
2018-07-15T15:26:57.893Z,33.30
2018-07-15T15:29:29.945Z,33.00
2018-07-15T15:35:08.489Z,32.70
2018-07-15T15:37:47.917Z,32.80
2018-07-15T15:40:20.151Z,32.60
2018-07-15T15:42:52.560Z,32.50
2018-07-15T15:48:32.615Z,32.70
2018-07-15T15:54:27.104Z,31.30
2018-07-15T15:56:58.383Z,31.70
2018-07-15T15:59:29.721Z,31.60
2018-07-15T16:02:00.800Z,32.00
2018-07-15T16:05:27.364Z,35.30
2018-07-15T16:07:57.937Z,35.90
2018-07-15T16:10:29.752Z,31.90
2018-07-15T16:13:32.077Z,33.50
2018-07-15T16:16:04.136Z,31.80
2018-07-15T16:21:37.480Z,28.90
2018-07-15T16:24:08.473Z,28.70
2018-07-15T16:26:39.976Z,28.70
2018-07-15T16:29:11.883Z,28.20
2018-07-15T16:34:41.869Z,28.40
2018-07-15T16:37:12.624Z,28.30
2018-07-15T16:39:43.484Z,28.00
2018-07-15T16:42:13.904Z,28.20
2018-07-15T16:44:44.508Z,27.80
2018-07-15T16:47:15.345Z,27.70
2018-07-15T16:49:46.567Z,27.50
2018-07-15T16:52:16.793Z,27.70
2018-07-15T16:57:50.475Z,27.50
2018-07-15T17:00:20.380Z,27.30
2018-07-15T17:02:50.035Z,27.50
2018-07-15T17:05:21.650Z,27.70
2018-07-15T17:07:52.398Z,28.10
2018-07-15T17:10:22.343Z,28.40
2018-07-15T17:12:52.308Z,28.20
2018-07-15T17:15:22.195Z,28.00
2018-07-15T17:20:55.564Z,27.70
2018-07-15T17:26:28.640Z,27.80
2018-07-15T17:29:00.196Z,27.60
2018-07-15T17:31:29.810Z,27.30
2018-07-15T17:34:00.158Z,27.50
2018-07-15T17:36:31.275Z,27.60
2018-07-15T17:39:01.425Z,27.70
2018-07-15T17:41:31.902Z,27.40
2018-07-15T17:44:03.318Z,27.40
2018-07-15T17:49:36.347Z,27.40
2018-07-15T17:52:06.960Z,28.30
2018-07-15T17:54:37.930Z,28.20
2018-07-15T17:57:09.476Z,28.20
2018-07-15T17:59:39.797Z,28.40
2018-07-15T18:02:10.193Z,28.60
2018-07-15T18:04:39.687Z,29.00
2018-07-15T18:07:09.271Z,28.90
2018-07-15T18:09:39.535Z,29.40
2018-07-15T18:12:10.340Z,29.60
2018-07-15T18:14:42.007Z,30.00
2018-07-15T18:17:12.961Z,30.60
2018-07-15T18:19:43.875Z,32.00
2018-07-15T18:22:14.904Z,33.80
2018-07-15T18:24:46.900Z,35.60
2018-07-15T18:27:23.885Z,37.10
2018-07-15T18:29:53.488Z,38.60
2018-07-15T18:32:24.997Z,39.70
2018-07-15T18:34:56.890Z,40.80
2018-07-15T18:37:28.085Z,41.50
2018-07-15T18:39:58.198Z,42.10
2018-07-15T18:42:28.480Z,42.90
2018-07-15T18:44:58.230Z,43.50
2018-07-15T18:47:28.563Z,44.00
2018-07-15T18:50:00.011Z,44.80
2018-07-15T18:52:30.240Z,45.30
2018-07-15T18:55:00.993Z,45.50
2018-07-15T18:57:31.187Z,45.90
2018-07-15T19:00:02.311Z,46.50
2018-07-15T19:02:32.120Z,46.80
2018-07-15T19:05:01.858Z,47.10
2018-07-15T19:07:32.053Z,47.30
2018-07-15T19:10:02.883Z,47.40
2018-07-15T19:12:39.027Z,47.50
2018-07-15T19:15:09.995Z,48.00
2018-07-15T19:17:40.368Z,48.20
2018-07-15T19:20:10.341Z,48.40
2018-07-15T19:22:40.237Z,48.50
2018-07-15T19:25:11.130Z,48.90
2018-07-15T19:27:43.197Z,49.10
2018-07-15T19:30:12.327Z,49.60
2018-07-15T19:32:42.145Z,50.00
2018-07-15T19:35:13.864Z,50.20
2018-07-15T19:37:43.304Z,50.40
2018-07-15T19:40:12.938Z,50.80
2018-07-15T19:42:43.734Z,51.90
2018-07-15T19:45:14.314Z,51.50
2018-07-15T19:47:45.927Z,51.70
2018-07-15T19:50:16.276Z,51.90
2018-07-15T19:52:46.017Z,52.10
2018-07-15T19:55:16.700Z,52.70
2018-07-15T19:57:48.234Z,52.70
2018-07-15T20:00:17.281Z,53.00
2018-07-15T20:02:48.179Z,53.40
2018-07-15T20:05:18.394Z,53.50
2018-07-15T20:07:51.951Z,54.00
2018-07-15T20:10:22.990Z,54.50
2018-07-15T20:12:54.643Z,55.00
2018-07-15T20:15:25.076Z,55.40
2018-07-15T20:17:55.257Z,55.80
2018-07-15T20:20:24.858Z,56.40
2018-07-15T20:22:54.374Z,56.90
2018-07-15T20:25:23.867Z,57.20
2018-07-15T20:27:56.182Z,57.90
2018-07-15T20:30:25.840Z,58.20
2018-07-15T20:32:56.792Z,58.60
2018-07-15T20:35:27.072Z,59.10
2018-07-15T20:37:57.313Z,59.60
2018-07-15T20:40:27.421Z,60.20
2018-07-15T20:42:58.828Z,60.60
2018-07-15T20:45:30.620Z,61.10
2018-07-15T20:48:03.105Z,61.60
2018-07-15T20:50:34.754Z,62.40
2018-07-15T20:53:06.760Z,62.30
2018-07-15T20:55:38.415Z,63.10
2018-07-15T20:58:09.240Z,62.90
2018-07-15T21:00:38.991Z,63.80
2018-07-15T21:03:08.818Z,64.70
2018-07-15T21:05:39.015Z,64.80
2018-07-15T21:08:10.732Z,65.20
2018-07-15T21:10:41.181Z,65.50
2018-07-15T21:13:13.328Z,65.70
2018-07-15T21:15:43.837Z,66.10
2018-07-15T21:18:13.949Z,66.20
2018-07-15T21:20:43.834Z,67.50
2018-07-15T21:23:15.328Z,67.50
2018-07-15T21:25:45.645Z,67.80
2018-07-15T21:28:16.187Z,68.00
2018-07-15T21:30:46.675Z,68.30
2018-07-15T21:33:17.695Z,69.10
2018-07-15T21:35:47.077Z,70.10
2018-07-15T21:38:17.616Z,70.10
2018-07-15T21:40:49.113Z,70.40
2018-07-15T21:43:19.558Z,70.60
2018-07-15T21:45:50.053Z,70.90
2018-07-15T21:48:21.577Z,71.30
2018-07-15T21:50:50.995Z,71.50
2018-07-15T21:53:22.172Z,71.90
2018-07-15T21:55:51.812Z,72.60
2018-07-15T21:58:22.009Z,73.30
2018-07-15T22:00:54.933Z,73.70
2018-07-15T22:03:25.818Z,74.20
2018-07-15T22:05:56.345Z,74.40
2018-07-15T22:08:48.043Z,74.60
2018-07-15T22:11:20.031Z,74.70
2018-07-15T22:13:50.012Z,75.20
2018-07-15T22:16:19.684Z,75.50
2018-07-15T22:18:51.092Z,76.20
2018-07-15T22:21:21.485Z,76.20
2018-07-15T22:23:51.968Z,76.30
2018-07-15T22:26:21.980Z,76.50
2018-07-15T22:29:00.790Z,77.10
2018-07-15T22:31:32.414Z,77.20
2018-07-15T22:34:03.897Z,77.80
2018-07-15T22:36:36.083Z,78.10
2018-07-15T22:39:08.259Z,78.20
2018-07-15T22:41:37.876Z,78.60
2018-07-15T22:44:08.889Z,79.00
2018-07-15T22:46:40.436Z,79.20
2018-07-15T22:49:10.985Z,79.50
2018-07-15T22:51:40.126Z,79.90
2018-07-15T22:54:09.039Z,80.20
2018-07-15T22:56:38.805Z,80.50
2018-07-15T22:59:10.610Z,80.70
2018-07-15T23:01:40.624Z,81.00
2018-07-15T23:04:10.829Z,81.70
2018-07-15T23:06:39.962Z,81.20
2018-07-15T23:09:11.296Z,81.50
2018-07-15T23:11:40.846Z,81.50
2018-07-15T23:14:12.411Z,81.80
2018-07-15T23:16:43.353Z,81.80
2018-07-15T23:19:13.159Z,82.20
2018-07-15T23:21:44.587Z,82.40
2018-07-15T23:26:50.894Z,83.30
2018-07-15T23:29:24.678Z,83.40
2018-07-15T23:31:55.126Z,83.60
2018-07-15T23:34:25.891Z,83.80
2018-07-15T23:36:56.582Z,83.90
2018-07-15T23:39:26.973Z,84.10
2018-07-15T23:41:56.824Z,84.40
2018-07-15T23:44:28.392Z,84.60
2018-07-15T23:46:57.953Z,84.80
2018-07-15T23:49:28.424Z,84.90
2018-07-15T23:51:59.453Z,85.00
2018-07-15T23:54:30.662Z,85.20
2018-07-15T23:57:01.498Z,85.30
2018-07-15T23:59:31.699Z,85.40
